createdAt,value
2018-09-14T00:00:52.964Z,9.20
2018-09-14T00:03:22.308Z,8.63
2018-09-14T00:05:50.983Z,8.43
2018-09-14T00:08:20.490Z,8.90
2018-09-14T00:10:50.826Z,8.23
2018-09-14T00:13:19.582Z,8.30
2018-09-14T00:15:48.207Z,9.63
2018-09-14T00:18:16.850Z,8.90
2018-09-14T00:20:45.458Z,9.23
2018-09-14T00:23:14.217Z,10.13
2018-09-14T00:25:43.401Z,9.17
2018-09-14T00:28:12.068Z,8.83
2018-09-14T00:30:42.052Z,10.20
2018-09-14T00:33:11.540Z,8.80
2018-09-14T00:35:40.419Z,8.63
2018-09-14T00:38:09.045Z,8.17
2018-09-14T00:40:37.790Z,8.53
2018-09-14T00:43:06.772Z,8.53
2018-09-14T00:45:36.002Z,8.23
2018-09-14T00:48:04.850Z,8.80
2018-09-14T00:50:33.871Z,9.20
2018-09-14T00:53:02.802Z,10.37
2018-09-14T00:55:31.467Z,11.07
2018-09-14T00:58:02.401Z,10.73
2018-09-14T01:00:31.090Z,10.93
2018-09-14T01:03:00.665Z,9.97
2018-09-14T01:05:29.499Z,9.17
2018-09-14T01:07:58.158Z,8.43
2018-09-14T01:10:26.786Z,8.93
2018-09-14T01:12:56.337Z,8.50
2018-09-14T01:15:25.031Z,7.70
2018-09-14T01:17:53.804Z,7.17
2018-09-14T01:20:22.790Z,7.03
2018-09-14T01:22:51.883Z,6.97
2018-09-14T01:25:21.601Z,6.70
2018-09-14T01:27:50.328Z,7.03
2018-09-14T01:30:20.032Z,6.93
2018-09-14T01:32:48.716Z,7.53
2018-09-14T01:35:22.472Z,6.30
2018-09-14T01:37:53.140Z,6.80
2018-09-14T01:40:21.793Z,5.87
2018-09-14T01:42:50.404Z,5.73
2018-09-14T01:45:19.045Z,5.67
2018-09-14T01:47:47.577Z,5.97
2018-09-14T01:50:16.202Z,5.73
2018-09-14T01:52:44.813Z,5.70
2018-09-14T01:55:13.434Z,4.83
2018-09-14T01:57:42.113Z,5.50
2018-09-14T02:00:10.831Z,5.10
2018-09-14T02:02:39.494Z,5.03
2018-09-14T02:05:08.167Z,4.90
2018-09-14T02:07:37.610Z,5.50
2018-09-14T02:10:06.970Z,4.87
2018-09-14T02:12:35.637Z,5.10
2018-09-14T02:15:04.287Z,4.93
2018-09-14T02:17:32.964Z,5.00
2018-09-14T02:20:01.874Z,5.53
2018-09-14T02:22:30.566Z,5.17
2018-09-14T02:25:00.654Z,5.33
2018-09-14T02:27:29.482Z,5.37
2018-09-14T02:29:58.182Z,5.10
2018-09-14T02:32:27.045Z,5.22
2018-09-14T02:34:56.036Z,5.80
2018-09-14T02:37:24.798Z,5.10
2018-09-14T02:39:53.397Z,5.63
2018-09-14T02:42:22.489Z,5.70
2018-09-14T02:44:52.242Z,5.93
2018-09-14T02:47:20.848Z,5.67
2018-09-14T02:49:49.516Z,5.43
2018-09-14T02:52:18.783Z,5.47
2018-09-14T02:54:47.536Z,5.63
2018-09-14T02:57:16.526Z,5.47
2018-09-14T02:59:47.555Z,5.63
2018-09-14T03:02:16.198Z,5.03
2018-09-14T03:04:45.451Z,5.77
2018-09-14T03:07:14.987Z,5.43
2018-09-14T03:09:45.068Z,5.67
2018-09-14T03:12:13.692Z,5.67
2018-09-14T03:14:42.826Z,5.17
2018-09-14T03:17:11.451Z,6.40
2018-09-14T03:19:40.019Z,5.47
2018-09-14T03:22:08.869Z,6.50
2018-09-14T03:24:37.509Z,6.13
2018-09-14T03:27:06.842Z,5.43
2018-09-14T03:29:35.527Z,5.90
2018-09-14T03:32:05.379Z,5.30
2018-09-14T03:34:33.992Z,5.73
2018-09-14T03:37:02.675Z,6.20
2018-09-14T03:39:31.417Z,5.83
2018-09-14T03:42:00.026Z,5.87
2018-09-14T03:44:28.757Z,5.70
2018-09-14T03:46:57.272Z,5.53
2018-09-14T03:49:25.847Z,6.20
2018-09-14T03:51:54.491Z,5.67
2018-09-14T03:54:23.059Z,5.23
2018-09-14T03:56:51.808Z,5.73
2018-09-14T03:59:20.367Z,6.87
2018-09-14T04:01:48.974Z,6.40
2018-09-14T04:04:17.497Z,6.17
2018-09-14T04:06:46.134Z,5.23
2018-09-14T04:09:15.896Z,5.27
2018-09-14T04:11:45.651Z,5.97
2018-09-14T04:14:14.291Z,5.83
2018-09-14T04:16:43.841Z,5.30
2018-09-14T04:19:13.349Z,5.23
2018-09-14T04:21:41.937Z,4.87
2018-09-14T04:24:11.573Z,5.23
2018-09-14T04:26:40.184Z,5.13
2018-09-14T04:29:11.189Z,4.43
2018-09-14T04:31:39.806Z,5.23
2018-09-14T04:34:08.461Z,4.53
2018-09-14T04:36:38.756Z,4.97
2018-09-14T04:39:09.398Z,4.77
2018-09-14T04:41:39.666Z,5.30
2018-09-14T04:44:09.070Z,5.43
2018-09-14T04:46:37.778Z,5.70
2018-09-14T04:49:06.485Z,5.60
2018-09-14T04:51:35.648Z,5.10
2018-09-14T04:54:04.361Z,5.67
2018-09-14T04:56:32.968Z,4.90
2018-09-14T04:59:01.902Z,4.80
2018-09-14T05:01:30.972Z,5.37
2018-09-14T05:04:00.527Z,4.50
2018-09-14T05:06:29.851Z,4.60
2018-09-14T05:08:59.582Z,4.27
2018-09-14T05:11:29.007Z,4.30
2018-09-14T05:13:57.827Z,3.90
2018-09-14T05:16:26.765Z,3.67
2018-09-14T05:18:56.350Z,3.37
2018-09-14T05:21:25.272Z,3.40
2018-09-14T05:23:54.337Z,3.07
2018-09-14T05:26:24.045Z,3.47
2018-09-14T05:28:52.690Z,3.90
2018-09-14T05:31:21.304Z,3.27
2018-09-14T05:33:49.928Z,3.80
2018-09-14T05:36:18.578Z,3.93
2018-09-14T05:38:47.398Z,3.77
2018-09-14T05:41:16.122Z,3.43
2018-09-14T05:43:44.735Z,3.70
2018-09-14T05:46:14.732Z,4.10
2018-09-14T05:48:43.459Z,3.80
2018-09-14T05:51:13.287Z,3.70
2018-09-14T05:53:42.581Z,3.73
2018-09-14T05:56:11.486Z,3.90
2018-09-14T05:58:40.313Z,3.73
2018-09-14T06:01:09.134Z,3.87
2018-09-14T06:03:38.831Z,3.77
2018-09-14T06:06:07.632Z,3.53
2018-09-14T06:08:36.607Z,4.40
2018-09-14T06:11:05.796Z,4.10
2018-09-14T06:13:35.193Z,3.87
2018-09-14T06:16:06.236Z,4.13
2018-09-14T06:18:35.044Z,4.03
2018-09-14T06:21:05.205Z,4.33
2018-09-14T06:23:34.595Z,3.90
2018-09-14T06:26:03.977Z,4.50
2018-09-14T06:28:33.128Z,4.33
2018-09-14T06:31:02.772Z,5.50
2018-09-14T06:33:32.271Z,5.30
2018-09-14T06:36:02.755Z,4.83
2018-09-14T06:38:31.580Z,5.10
2018-09-14T06:41:00.298Z,4.87
2018-09-14T06:43:28.916Z,5.17
2018-09-14T06:45:57.480Z,5.60
2018-09-14T06:48:26.488Z,6.27
2018-09-14T06:50:55.074Z,5.43
2018-09-14T06:53:23.964Z,5.87
2018-09-14T06:55:52.754Z,6.37
2018-09-14T06:58:21.271Z,6.50
2018-09-14T07:00:50.013Z,7.07
2018-09-14T07:03:18.588Z,7.27
2018-09-14T07:05:47.743Z,6.67
2018-09-14T07:08:16.286Z,7.13
2018-09-14T07:10:44.888Z,6.30
2018-09-14T07:13:13.495Z,7.90
2018-09-14T07:15:42.072Z,7.63
2018-09-14T07:18:10.686Z,7.60
2018-09-14T07:20:39.652Z,7.97
2018-09-14T07:23:09.110Z,8.27
2018-09-14T07:25:38.435Z,7.87
2018-09-14T07:28:07.034Z,9.10
2018-09-14T07:30:35.850Z,9.20
2018-09-14T07:33:04.613Z,8.83
2018-09-14T07:35:34.021Z,8.90
2018-09-14T07:38:02.924Z,9.60
2018-09-14T07:40:31.519Z,9.73
2018-09-14T07:43:01.838Z,10.07
2018-09-14T07:45:30.508Z,9.77
2018-09-14T07:47:59.164Z,10.90
2018-09-14T07:50:28.894Z,10.00
2018-09-14T07:52:58.014Z,10.50
2018-09-14T07:55:26.670Z,12.30
2018-09-14T07:57:56.004Z,12.77
2018-09-14T08:00:26.372Z,12.90
2018-09-14T08:02:54.947Z,12.97
2018-09-14T08:05:24.359Z,12.47
2018-09-14T08:07:53.083Z,13.50
2018-09-14T08:10:21.725Z,13.78
2018-09-14T08:12:50.400Z,12.70
2018-09-14T08:15:19.101Z,13.60
2018-09-14T08:17:47.872Z,13.07
2018-09-14T08:20:16.773Z,13.15
2018-09-14T08:22:45.576Z,12.80
2018-09-14T08:25:14.623Z,11.73
2018-09-14T08:27:43.254Z,12.37
2018-09-14T08:30:11.890Z,12.73
2018-09-14T08:32:41.305Z,12.13
2018-09-14T08:35:10.988Z,11.90
2018-09-14T08:37:39.729Z,11.53
2018-09-14T08:40:08.399Z,10.70
2018-09-14T08:42:37.037Z,10.73
2018-09-14T08:45:05.734Z,10.37
2018-09-14T08:47:36.162Z,9.80
2018-09-14T08:50:05.258Z,9.27
2018-09-14T08:52:34.327Z,9.93
2018-09-14T08:55:10.331Z,9.63
2018-09-14T08:57:39.698Z,8.90
2018-09-14T09:00:08.406Z,9.23
2018-09-14T09:02:36.982Z,8.70
2018-09-14T09:05:05.807Z,7.83
2018-09-14T09:07:34.435Z,7.43
2018-09-14T09:10:03.428Z,7.40
2018-09-14T09:12:32.206Z,6.87
2018-09-14T09:15:01.214Z,6.58
2018-09-14T09:17:29.915Z,6.20
2018-09-14T09:19:58.848Z,6.13
2018-09-14T09:22:27.384Z,6.30
2018-09-14T09:24:56.011Z,6.30
2018-09-14T09:27:24.748Z,6.07
2018-09-14T09:29:53.379Z,6.27
2018-09-14T09:32:22.030Z,5.30
2018-09-14T09:34:50.696Z,5.40
2018-09-14T09:37:19.344Z,5.27
2018-09-14T09:39:48.039Z,4.43
2018-09-14T09:42:16.812Z,5.10
2018-09-14T09:44:45.919Z,4.93
2018-09-14T09:47:15.545Z,5.07
2018-09-14T09:49:44.375Z,4.87
2018-09-14T09:52:13.225Z,5.40
2018-09-14T09:54:41.842Z,4.97
2018-09-14T09:57:10.438Z,5.47
2018-09-14T09:59:40.033Z,5.30
2018-09-14T10:02:13.867Z,7.90
2018-09-14T10:04:47.874Z,5.10
2018-09-14T10:07:16.396Z,5.77
2018-09-14T10:09:45.319Z,5.83
2018-09-14T10:12:14.367Z,5.07
2018-09-14T10:14:42.973Z,6.33
2018-09-14T10:17:11.742Z,5.80
2018-09-14T10:19:41.158Z,5.90
2018-09-14T10:22:11.207Z,5.77
2018-09-14T10:24:40.016Z,5.23
2018-09-14T10:27:08.744Z,5.33
2018-09-14T10:29:37.345Z,4.93
2018-09-14T10:32:06.051Z,5.37
2018-09-14T10:34:35.293Z,5.30
2018-09-14T10:37:05.331Z,4.47
2018-09-14T10:39:34.532Z,4.70
2018-09-14T10:42:04.810Z,4.20
2018-09-14T10:44:33.824Z,4.40
2018-09-14T10:47:04.916Z,4.80
2018-09-14T10:49:33.971Z,4.37
2018-09-14T10:52:04.610Z,3.83
2018-09-14T10:54:34.972Z,3.67
2018-09-14T10:57:05.235Z,3.10
2018-09-14T10:59:34.351Z,3.53
2018-09-14T11:02:05.030Z,3.20
2018-09-14T11:04:34.218Z,3.10
2018-09-14T11:07:04.613Z,3.03
2018-09-14T11:09:33.402Z,3.33
2018-09-14T11:12:03.235Z,3.40
2018-09-14T11:14:32.574Z,3.20
2018-09-14T11:17:01.769Z,3.08
2018-09-14T11:19:30.628Z,3.03
2018-09-14T11:21:59.571Z,3.40
2018-09-14T11:24:28.816Z,3.50
2018-09-14T11:26:58.498Z,3.00
2018-09-14T11:29:27.183Z,3.20
2018-09-14T11:31:55.832Z,3.02
2018-09-14T11:34:24.694Z,3.27
2018-09-14T11:36:53.671Z,2.83
2018-09-14T11:39:23.685Z,2.52
2018-09-14T11:41:52.648Z,2.83
2018-09-14T11:44:22.272Z,2.70
2018-09-14T11:46:51.351Z,2.87
2018-09-14T11:49:20.348Z,2.70
2018-09-14T11:51:50.735Z,2.70
2018-09-14T11:54:19.908Z,4.58
2018-09-14T11:56:48.486Z,2.75
2018-09-14T11:59:17.387Z,2.90
2018-09-14T12:01:46.038Z,2.95
2018-09-14T12:04:14.864Z,3.50
2018-09-14T12:06:43.530Z,3.17
2018-09-14T12:09:13.052Z,2.52
2018-09-14T12:11:42.562Z,2.80
2018-09-14T12:14:11.673Z,3.37
2018-09-14T12:16:40.472Z,2.83
2018-09-14T12:19:10.201Z,3.20
2018-09-14T12:21:40.153Z,4.62
2018-09-14T12:24:09.292Z,3.05
2018-09-14T12:26:38.318Z,3.00
2018-09-14T12:29:06.948Z,2.35
2018-09-14T12:31:35.529Z,2.62
2018-09-14T12:34:04.254Z,2.12
2018-09-14T12:36:32.896Z,2.62
2018-09-14T12:39:01.579Z,2.60
2018-09-14T12:41:30.172Z,2.17
2018-09-14T12:43:58.736Z,2.42
2018-09-14T12:46:27.313Z,2.42
2018-09-14T12:48:55.925Z,2.50
2018-09-14T12:51:25.290Z,2.33
2018-09-14T12:53:53.876Z,2.65
2018-09-14T12:56:22.553Z,2.37
2018-09-14T12:58:51.342Z,2.50
2018-09-14T13:01:19.962Z,2.40
2018-09-14T13:03:48.610Z,2.65
2018-09-14T13:06:17.090Z,2.43
2018-09-14T13:08:45.701Z,2.70
2018-09-14T13:11:14.522Z,2.47
2018-09-14T13:13:44.630Z,2.90
2018-09-14T13:16:13.383Z,2.63
2018-09-14T13:18:43.061Z,2.33
2018-09-14T13:21:11.851Z,2.30
2018-09-14T13:23:40.617Z,2.50
2018-09-14T13:26:09.345Z,2.10
2018-09-14T13:28:40.570Z,2.60
2018-09-14T13:31:09.283Z,2.37
2018-09-14T13:33:37.991Z,3.83
2018-09-14T13:36:06.732Z,3.10
2018-09-14T13:38:35.853Z,3.08
2018-09-14T13:41:05.928Z,2.60
2018-09-14T13:43:34.932Z,2.70
2018-09-14T13:46:05.150Z,3.47
2018-09-14T13:48:34.334Z,2.75
2018-09-14T13:51:06.739Z,2.00
2018-09-14T13:53:36.342Z,2.20
2018-09-14T13:56:06.741Z,2.18
2018-09-14T13:58:35.682Z,2.40
2018-09-14T14:01:05.336Z,2.10
2018-09-14T14:03:34.188Z,2.50
2018-09-14T14:06:05.387Z,2.37
2018-09-14T14:08:34.329Z,2.37
2018-09-14T14:11:03.887Z,2.02
2018-09-14T14:13:33.725Z,2.40
2018-09-14T14:16:04.850Z,2.20
2018-09-14T14:18:33.466Z,2.40
2018-09-14T14:21:03.117Z,2.35
2018-09-14T14:23:31.737Z,2.35
2018-09-14T14:26:01.668Z,2.25
2018-09-14T14:28:31.054Z,2.33
2018-09-14T14:30:59.795Z,2.25
2018-09-14T14:33:30.081Z,2.58
2018-09-14T14:35:59.804Z,2.22
2018-09-14T14:38:30.443Z,2.70
2018-09-14T14:40:59.987Z,2.58
2018-09-14T14:43:28.740Z,1.90
2018-09-14T14:45:58.770Z,2.62
2018-09-14T14:48:27.382Z,1.92
2018-09-14T14:50:55.974Z,2.02
2018-09-14T14:53:26.077Z,2.10
2018-09-14T14:55:55.085Z,1.95
2018-09-14T14:58:24.280Z,2.20
2018-09-14T15:00:54.016Z,2.30
2018-09-14T15:03:24.041Z,3.50
2018-09-14T15:05:52.807Z,2.72
2018-09-14T15:08:22.300Z,2.40
2018-09-14T15:10:54.224Z,2.40
2018-09-14T15:13:23.096Z,2.12
2018-09-14T15:15:52.404Z,2.85
2018-09-14T15:18:24.587Z,2.42
2018-09-14T15:20:53.609Z,1.90
2018-09-14T15:23:22.835Z,2.13
2018-09-14T15:25:51.628Z,2.35
2018-09-14T15:28:20.264Z,2.22
2018-09-14T15:30:48.807Z,2.20
2018-09-14T15:33:17.481Z,2.20
2018-09-14T15:35:46.125Z,2.50
2018-09-14T15:38:15.130Z,2.27
2018-09-14T15:40:45.959Z,2.30
2018-09-14T15:43:15.599Z,2.42
2018-09-14T15:45:44.460Z,2.50
2018-09-14T15:48:13.833Z,2.22
2018-09-14T15:50:42.476Z,2.30
2018-09-14T15:53:11.808Z,2.40
2018-09-14T15:55:40.442Z,2.55
2018-09-14T15:58:09.849Z,2.75
2018-09-14T16:00:38.635Z,2.80
2018-09-14T16:03:07.490Z,2.58
2018-09-14T16:05:36.166Z,2.20
2018-09-14T16:08:06.059Z,2.40
2018-09-14T16:10:34.810Z,2.50
2018-09-14T16:13:03.434Z,2.53
2018-09-14T16:15:33.359Z,2.55
2018-09-14T16:18:03.736Z,2.80
2018-09-14T16:20:33.158Z,2.87
2018-09-14T16:23:02.896Z,2.65
2018-09-14T16:25:35.831Z,3.30
2018-09-14T16:28:05.276Z,2.85
2018-09-14T16:30:35.667Z,2.70
2018-09-14T16:33:04.446Z,2.70
2018-09-14T16:35:34.757Z,2.97
2018-09-14T16:38:05.415Z,2.70
2018-09-14T16:40:39.171Z,2.67
2018-09-14T16:43:08.821Z,3.17
2018-09-14T16:45:37.912Z,2.83
2018-09-14T16:48:07.639Z,2.80
2018-09-14T16:50:36.243Z,2.70
2018-09-14T16:53:07.808Z,2.83
2018-09-14T16:55:36.828Z,2.70
2018-09-14T16:58:05.686Z,3.00
2018-09-14T17:00:34.532Z,2.90
2018-09-14T17:03:04.183Z,2.67
2018-09-14T17:05:33.695Z,3.20
2018-09-14T17:08:05.044Z,2.80
2018-09-14T17:10:37.556Z,3.10
2018-09-14T17:13:06.734Z,3.03
2018-09-14T17:15:35.429Z,2.90
2018-09-14T17:18:05.523Z,3.00
2018-09-14T17:20:34.476Z,3.53
2018-09-14T17:23:03.167Z,3.70
2018-09-14T17:25:31.847Z,3.22
2018-09-14T17:28:01.939Z,3.57
2018-09-14T17:30:30.941Z,4.90
2018-09-14T17:32:59.690Z,5.67
2018-09-14T17:35:29.128Z,8.67
2018-09-14T17:37:57.919Z,5.60
2018-09-14T17:40:27.628Z,3.80
2018-09-14T17:42:56.422Z,3.80
2018-09-14T17:45:26.579Z,3.87
2018-09-14T17:47:55.235Z,3.80
2018-09-14T17:50:24.304Z,3.30
2018-09-14T17:52:53.844Z,3.63
2018-09-14T17:55:22.961Z,3.70
2018-09-14T17:57:51.846Z,3.70
2018-09-14T18:00:21.022Z,3.47
2018-09-14T18:02:50.587Z,3.40
2018-09-14T18:05:20.086Z,2.90
2018-09-14T18:07:48.811Z,3.13
2018-09-14T18:10:17.391Z,3.07
2018-09-14T18:12:46.214Z,3.20
2018-09-14T18:15:15.819Z,3.10
2018-09-14T18:17:44.645Z,3.43
2018-09-14T18:20:13.891Z,3.60
2018-09-14T18:22:42.818Z,3.23
2018-09-14T18:25:11.686Z,3.30
2018-09-14T18:27:40.528Z,3.50
2018-09-14T18:30:09.924Z,3.70
2018-09-14T18:32:38.788Z,3.83
2018-09-14T18:35:08.277Z,3.87
2018-09-14T18:37:37.162Z,3.80
2018-09-14T18:40:06.537Z,4.00
2018-09-14T18:42:35.201Z,4.20
2018-09-14T18:45:04.858Z,4.20
2018-09-14T18:47:34.466Z,3.90
2018-09-14T18:50:04.061Z,4.10
2018-09-14T18:52:33.116Z,4.30
2018-09-14T18:55:02.229Z,4.20
2018-09-14T18:57:31.064Z,4.10
2018-09-14T18:59:59.929Z,4.27
2018-09-14T19:02:29.519Z,4.07
2018-09-14T19:04:58.579Z,4.10
2018-09-14T19:07:28.379Z,4.43
2018-09-14T19:09:57.116Z,4.60
2018-09-14T19:12:25.924Z,4.33
2018-09-14T19:14:54.810Z,4.43
2018-09-14T19:17:24.271Z,4.67
2018-09-14T19:19:53.929Z,4.20
2018-09-14T19:22:22.714Z,4.47
2018-09-14T19:24:51.580Z,4.30
2018-09-14T19:27:20.516Z,4.60
2018-09-14T19:29:50.086Z,4.57
2018-09-14T19:32:18.924Z,4.80
2018-09-14T19:34:47.729Z,4.83
2018-09-14T19:37:17.366Z,4.57
2018-09-14T19:39:46.920Z,4.70
2018-09-14T19:48:13.905Z,4.57
2018-09-14T19:50:42.686Z,4.87
2018-09-14T19:53:32.405Z,4.97
2018-09-14T19:56:25.804Z,5.47
2018-09-14T19:58:55.124Z,5.03
2018-09-14T20:01:23.940Z,5.30
2018-09-14T20:03:53.664Z,5.07
2018-09-14T20:06:22.653Z,5.90
2018-09-14T20:08:51.468Z,5.30
2018-09-14T20:11:20.268Z,5.40
2018-09-14T20:13:49.300Z,5.20
2018-09-14T20:16:19.744Z,5.80
2018-09-14T20:18:49.347Z,5.80
2018-09-14T20:21:18.933Z,5.43
2018-09-14T20:23:47.759Z,5.87
2018-09-14T20:26:16.574Z,5.97
2018-09-14T20:28:46.021Z,6.27
2018-09-14T20:31:15.429Z,6.43
2018-09-14T20:33:45.092Z,6.50
2018-09-14T20:36:15.334Z,5.83
2018-09-14T20:38:45.205Z,6.67
2018-09-14T20:41:14.051Z,6.03
2018-09-14T20:43:44.056Z,5.87
2018-09-14T20:46:12.912Z,6.10
2018-09-14T20:48:42.906Z,6.90
2018-09-14T20:51:11.720Z,6.90
2018-09-14T20:53:40.385Z,6.37
2018-09-14T20:56:09.829Z,6.50
2018-09-14T20:58:38.415Z,6.23
2018-09-14T21:01:07.757Z,6.93
2018-09-14T21:03:36.385Z,7.27
2018-09-14T21:06:05.103Z,7.63
2018-09-14T21:08:34.147Z,6.97
2018-09-14T21:11:03.153Z,7.57
2018-09-14T21:13:31.891Z,7.53
2018-09-14T21:16:00.895Z,7.57
2018-09-14T21:18:29.642Z,9.53
2018-09-14T21:20:58.404Z,7.97
2018-09-14T21:23:27.276Z,8.63
2018-09-14T21:25:56.076Z,7.37
2018-09-14T21:28:24.820Z,8.57
2018-09-14T21:30:53.838Z,7.93
2018-09-14T21:33:22.803Z,8.27
2018-09-14T21:35:52.642Z,8.23
2018-09-14T21:38:22.236Z,7.87
2018-09-14T21:40:50.931Z,8.00
2018-09-14T21:43:20.489Z,8.13
2018-09-14T21:45:49.158Z,8.60
2018-09-14T21:48:17.890Z,8.87
2018-09-14T21:51:37.496Z,9.53
2018-09-14T21:54:23.381Z,9.67
2018-09-14T21:56:53.034Z,9.87
2018-09-14T21:59:21.863Z,9.68
2018-09-14T22:01:50.573Z,9.10
2018-09-14T22:04:40.109Z,9.73
2018-09-14T22:10:23.666Z,10.57
2018-09-14T22:12:53.441Z,9.93
2018-09-14T22:15:22.088Z,10.40
2018-09-14T22:17:50.861Z,10.73
2018-09-14T22:20:19.643Z,10.63
2018-09-14T22:22:48.301Z,10.33
2018-09-14T22:25:17.194Z,11.50
2018-09-14T22:27:46.390Z,10.80
2018-09-14T22:30:15.438Z,10.33
2018-09-14T22:32:44.061Z,11.17
2018-09-14T22:35:12.845Z,12.20
2018-09-14T22:37:41.773Z,11.97
2018-09-14T22:40:11.637Z,11.63
2018-09-14T22:42:40.412Z,11.47
2018-09-14T22:45:09.116Z,10.10
2018-09-14T22:47:38.801Z,11.80
2018-09-14T22:50:07.985Z,10.93
2018-09-14T22:52:36.687Z,11.63
2018-09-14T22:55:06.175Z,11.60
2018-09-14T22:57:34.850Z,11.37
2018-09-14T23:00:04.045Z,11.57
2018-09-14T23:02:32.747Z,11.53
2018-09-14T23:05:02.250Z,11.53
2018-09-14T23:07:30.922Z,10.80
2018-09-14T23:09:59.777Z,11.37
2018-09-14T23:12:28.459Z,11.17
2018-09-14T23:14:57.172Z,11.40
2018-09-14T23:17:26.752Z,10.47
2018-09-14T23:19:55.458Z,10.93
2018-09-14T23:22:24.265Z,10.27
2018-09-14T23:24:52.871Z,9.97
2018-09-14T23:27:21.563Z,10.87
2018-09-14T23:29:50.351Z,10.17
2018-09-14T23:32:19.078Z,10.67
2018-09-14T23:34:47.680Z,9.90
2018-09-14T23:37:16.887Z,10.77
2018-09-14T23:39:46.399Z,10.27
2018-09-14T23:42:16.125Z,10.53
2018-09-14T23:44:44.790Z,10.20
2018-09-14T23:47:13.672Z,10.80
2018-09-14T23:49:42.656Z,10.13
2018-09-14T23:52:11.365Z,10.23
2018-09-14T23:54:40.048Z,10.43
2018-09-14T23:57:08.762Z,10.00
2018-09-14T23:59:37.484Z,10.23
